メインページ
METAR-TAF:

METAR-TAF

空港 :

サントス・ドゥモン空港

リオデジャネイロ, リオデジャネイロ州, ブラジル

緯度: 22-54S, 経度: 043-10W, 海抜: 3m

現時点の気象観測

当レポートは23分前の22:00(UTC)に作成
の風 10kt
気温 26°C
湿度 84%
気圧 1013 hPa
視程10km以上
1,500メートル以下は雲なし、積乱雲なし

METAR: SBRJ 132200Z 17010KT CAVOK 26/23 Q1013

時間: 20:23 (22:23 UTC)

予報

当レポートは6時間3分前の16:20(UTC)に作成
予報は13日の 18時(UTC)から 14日の 06時(UTC)まで有効
南/南東の風 12kt
視程10km以上
高度2000ftの雲はほとんどない
13日の 18時(UTC)から 13日の 20時(UTC)まで徐々に
南東の風 10kt
14日の 02時(UTC)から 14日の 04時(UTC)まで徐々に
の風 5kt

TAF: SBRJ 131620Z 1318/1406 16012KT 9999 FEW020 TX32/1318Z TN25/1406Z BECMG 1318/1320 14010KT BECMG 1402/1404 08005KT RMK PGW

4,000以上の空港の気象観測と天気予報(METAR報とTAF報)

利用可能な観測所は地図上に黄色い丸と赤い丸で示す。

丸の上にカーソルを重ねると観測所名を参照できる。

次にクリックすると気象観測と天気予報を参照できる。

マップの切り替え:黒色「×」印の緑ボタンをクリックして拡大、「-」印の緑ボタンをクリックして縮小、緑色の三角印をクリックして隣りの地図に切り替え


METAR-TAF: